sensor_id;sensor_type;location;lat;lon;timestamp;P1;durP1;ratioP1;P2;durP2;ratioP2
74401;SDS011;62837;51.082;13.744;2023-05-07T00:00:32;11.00;;;5.80;;
74401;SDS011;62837;51.082;13.744;2023-05-07T00:03:03;9.10;;;5.50;;
74401;SDS011;62837;51.082;13.744;2023-05-07T00:05:35;9.70;;;6.10;;
74401;SDS011;62837;51.082;13.744;2023-05-07T00:08:07;13.40;;;8.00;;
74401;SDS011;62837;51.082;13.744;2023-05-07T00:10:37;10.20;;;6.80;;
74401;SDS011;62837;51.082;13.744;2023-05-07T00:13:08;14.20;;;7.20;;
74401;SDS011;62837;51.082;13.744;2023-05-07T00:15:39;9.90;;;6.50;;
74401;SDS011;62837;51.082;13.744;2023-05-07T00:18:10;9.80;;;6.80;;
74401;SDS011;62837;51.082;13.744;2023-05-07T00:20:41;11.40;;;7.00;;
74401;SDS011;62837;51.082;13.744;2023-05-07T00:23:11;12.60;;;7.00;;
74401;SDS011;62837;51.082;13.744;2023-05-07T00:25:42;9.70;;;6.30;;
74401;SDS011;62837;51.082;13.744;2023-05-07T00:28:13;11.40;;;7.00;;
74401;SDS011;62837;51.082;13.744;2023-05-07T00:30:44;14.00;;;8.30;;
74401;SDS011;62837;51.082;13.744;2023-05-07T00:33:14;11.40;;;7.30;;
74401;SDS011;62837;51.082;13.744;2023-05-07T00:35:45;11.20;;;7.40;;
74401;SDS011;62837;51.082;13.744;2023-05-07T00:38:16;11.90;;;8.00;;
74401;SDS011;62837;51.082;13.744;2023-05-07T00:40:47;11.60;;;7.60;;
74401;SDS011;62837;51.082;13.744;2023-05-07T00:43:19;12.40;;;8.80;;
74401;SDS011;62837;51.082;13.744;2023-05-07T00:45:50;11.00;;;7.20;;
74401;SDS011;62837;51.082;13.744;2023-05-07T00:48:21;10.80;;;7.80;;
74401;SDS011;62837;51.082;13.744;2023-05-07T00:50:53;13.20;;;7.80;;
74401;SDS011;62837;51.082;13.744;2023-05-07T00:53:25;10.40;;;7.30;;
74401;SDS011;62837;51.082;13.744;2023-05-07T00:55:56;10.40;;;6.90;;
74401;SDS011;62837;51.082;13.744;2023-05-07T00:58:28;11.10;;;7.90;;
74401;SDS011;62837;51.082;13.744;2023-05-07T01:00:59;11.40;;;7.80;;
74401;SDS011;62837;51.082;13.744;2023-05-07T01:03:31;11.80;;;7.40;;
74401;SDS011;62837;51.082;13.744;2023-05-07T01:06:02;10.90;;;7.00;;
74401;SDS011;62837;51.082;13.744;2023-05-07T01:08:36;9.90;;;7.00;;
74401;SDS011;62837;51.082;13.744;2023-05-07T01:11:08;10.50;;;7.80;;
74401;SDS011;62837;51.082;13.744;2023-05-07T01:13:39;9.80;;;6.90;;
74401;SDS011;62837;51.082;13.744;2023-05-07T01:16:11;12.00;;;7.70;;
74401;SDS011;62837;51.082;13.744;2023-05-07T01:18:42;12.00;;;8.70;;
74401;SDS011;62837;51.082;13.744;2023-05-07T01:21:15;11.00;;;8.50;;
74401;SDS011;62837;51.082;13.744;2023-05-07T01:23:47;9.70;;;6.50;;
74401;SDS011;62837;51.082;13.744;2023-05-07T01:26:18;10.40;;;7.40;;
74401;SDS011;62837;51.082;13.744;2023-05-07T01:28:49;8.70;;;6.20;;
74401;SDS011;62837;51.082;13.744;2023-05-07T01:31:20;10.90;;;7.50;;
74401;SDS011;62837;51.082;13.744;2023-05-07T01:33:52;9.30;;;6.80;;
74401;SDS011;62837;51.082;13.744;2023-05-07T01:36:25;10.70;;;6.80;;
74401;SDS011;62837;51.082;13.744;2023-05-07T01:38:58;11.00;;;7.30;;
74401;SDS011;62837;51.082;13.744;2023-05-07T01:43:59;13.00;;;7.00;;
74401;SDS011;62837;51.082;13.744;2023-05-07T01:46:32;13.20;;;7.60;;
74401;SDS011;62837;51.082;13.744;2023-05-07T01:49:03;11.00;;;7.10;;
74401;SDS011;62837;51.082;13.744;2023-05-07T01:51:34;11.20;;;7.80;;
74401;SDS011;62837;51.082;13.744;2023-05-07T01:54:05;9.50;;;7.10;;
74401;SDS011;62837;51.082;13.744;2023-05-07T01:56:36;9.60;;;7.00;;
74401;SDS011;62837;51.082;13.744;2023-05-07T01:59:07;10.70;;;6.90;;
74401;SDS011;62837;51.082;13.744;2023-05-07T02:01:38;9.00;;;6.30;;
74401;SDS011;62837;51.082;13.744;2023-05-07T02:04:10;10.70;;;6.90;;
74401;SDS011;62837;51.082;13.744;2023-05-07T02:06:41;12.30;;;7.00;;
74401;SDS011;62837;51.082;13.744;2023-05-07T02:09:13;12.00;;;7.30;;
74401;SDS011;62837;51.082;13.744;2023-05-07T02:11:46;10.10;;;6.20;;
74401;SDS011;62837;51.082;13.744;2023-05-07T02:14:18;9.80;;;6.60;;
74401;SDS011;62837;51.082;13.744;2023-05-07T02:16:49;11.40;;;7.20;;
74401;SDS011;62837;51.082;13.744;2023-05-07T02:19:20;12.00;;;7.30;;
74401;SDS011;62837;51.082;13.744;2023-05-07T02:21:51;9.90;;;6.60;;
74401;SDS011;62837;51.082;13.744;2023-05-07T02:24:22;8.70;;;5.70;;
74401;SDS011;62837;51.082;13.744;2023-05-07T02:26:52;9.70;;;6.40;;
74401;SDS011;62837;51.082;13.744;2023-05-07T02:29:23;6.50;;;3.80;;
74401;SDS011;62837;51.082;13.744;2023-05-07T02:31:54;9.70;;;6.60;;
74401;SDS011;62837;51.082;13.744;2023-05-07T02:34:26;8.90;;;6.00;;
74401;SDS011;62837;51.082;13.744;2023-05-07T02:36:57;9.30;;;5.80;;
74401;SDS011;62837;51.082;13.744;2023-05-07T02:39:27;8.10;;;5.40;;
74401;SDS011;62837;51.082;13.744;2023-05-07T02:41:58;8.00;;;5.70;;
74401;SDS011;62837;51.082;13.744;2023-05-07T02:44:29;8.70;;;5.50;;
74401;SDS011;62837;51.082;13.744;2023-05-07T02:47:00;9.20;;;6.00;;
74401;SDS011;62837;51.082;13.744;2023-05-07T02:49:31;7.60;;;4.60;;
74401;SDS011;62837;51.082;13.744;2023-05-07T02:52:03;7.20;;;4.50;;
74401;SDS011;62837;51.082;13.744;2023-05-07T02:54:34;8.00;;;4.50;;
74401;SDS011;62837;51.082;13.744;2023-05-07T02:57:05;7.50;;;4.90;;
74401;SDS011;62837;51.082;13.744;2023-05-07T02:59:36;5.60;;;3.40;;
74401;SDS011;62837;51.082;13.744;2023-05-07T03:02:07;9.20;;;5.30;;
74401;SDS011;62837;51.082;13.744;2023-05-07T03:04:38;8.30;;;5.40;;
74401;SDS011;62837;51.082;13.744;2023-05-07T03:07:09;6.30;;;4.00;;
74401;SDS011;62837;51.082;13.744;2023-05-07T03:09:40;9.40;;;5.20;;
74401;SDS011;62837;51.082;13.744;2023-05-07T03:12:11;6.20;;;4.40;;
74401;SDS011;62837;51.082;13.744;2023-05-07T03:14:42;7.50;;;5.00;;
74401;SDS011;62837;51.082;13.744;2023-05-07T03:17:12;6.70;;;3.70;;
74401;SDS011;62837;51.082;13.744;2023-05-07T03:19:44;7.80;;;4.90;;
74401;SDS011;62837;51.082;13.744;2023-05-07T03:22:15;9.00;;;5.40;;
74401;SDS011;62837;51.082;13.744;2023-05-07T03:24:46;6.70;;;4.70;;
74401;SDS011;62837;51.082;13.744;2023-05-07T03:27:17;7.80;;;5.00;;
74401;SDS011;62837;51.082;13.744;2023-05-07T03:29:49;6.40;;;4.30;;
74401;SDS011;62837;51.082;13.744;2023-05-07T03:32:20;8.80;;;5.20;;
74401;SDS011;62837;51.082;13.744;2023-05-07T03:34:53;6.30;;;4.10;;
74401;SDS011;62837;51.082;13.744;2023-05-07T03:37:24;8.40;;;5.20;;
74401;SDS011;62837;51.082;13.744;2023-05-07T03:39:55;8.60;;;4.90;;
74401;SDS011;62837;51.082;13.744;2023-05-07T03:42:26;6.30;;;4.00;;
74401;SDS011;62837;51.082;13.744;2023-05-07T03:44:58;7.80;;;4.70;;
74401;SDS011;62837;51.082;13.744;2023-05-07T03:47:29;7.20;;;4.60;;
74401;SDS011;62837;51.082;13.744;2023-05-07T03:50:00;8.70;;;5.40;;
74401;SDS011;62837;51.082;13.744;2023-05-07T03:52:31;10.40;;;5.60;;
74401;SDS011;62837;51.082;13.744;2023-05-07T03:55:03;9.50;;;5.90;;
74401;SDS011;62837;51.082;13.744;2023-05-07T03:57:37;10.20;;;5.80;;
74401;SDS011;62837;51.082;13.744;2023-05-07T04:00:09;8.80;;;5.40;;
74401;SDS011;62837;51.082;13.744;2023-05-07T04:02:47;9.70;;;6.40;;
74401;SDS011;62837;51.082;13.744;2023-05-07T04:05:26;11.30;;;6.10;;
74401;SDS011;62837;51.082;13.744;2023-05-07T04:08:00;10.90;;;6.30;;
74401;SDS011;62837;51.082;13.744;2023-05-07T04:10:36;11.00;;;6.10;;
74401;SDS011;62837;51.082;13.744;2023-05-07T04:13:10;10.00;;;5.70;;
74401;SDS011;62837;51.082;13.744;2023-05-07T04:15:42;9.50;;;5.90;;
74401;SDS011;62837;51.082;13.744;2023-05-07T04:20:44;10.00;;;5.40;;
74401;SDS011;62837;51.082;13.744;2023-05-07T04:23:15;10.30;;;6.20;;
74401;SDS011;62837;51.082;13.744;2023-05-07T04:25:46;10.10;;;6.10;;
74401;SDS011;62837;51.082;13.744;2023-05-07T04:28:28;7.20;;;4.10;;
74401;SDS011;62837;51.082;13.744;2023-05-07T04:30:58;9.60;;;4.70;;
74401;SDS011;62837;51.082;13.744;2023-05-07T04:33:30;12.30;;;6.80;;
74401;SDS011;62837;51.082;13.744;2023-05-07T04:36:02;9.10;;;5.60;;
74401;SDS011;62837;51.082;13.744;2023-05-07T04:38:38;8.70;;;5.10;;
74401;SDS011;62837;51.082;13.744;2023-05-07T04:41:09;7.20;;;4.20;;
74401;SDS011;62837;51.082;13.744;2023-05-07T04:43:43;9.80;;;6.10;;
74401;SDS011;62837;51.082;13.744;2023-05-07T04:46:14;7.80;;;4.80;;
74401;SDS011;62837;51.082;13.744;2023-05-07T04:48:45;11.40;;;6.20;;
74401;SDS011;62837;51.082;13.744;2023-05-07T04:51:16;10.10;;;6.40;;
74401;SDS011;62837;51.082;13.744;2023-05-07T04:53:47;10.40;;;5.80;;
74401;SDS011;62837;51.082;13.744;2023-05-07T04:56:18;10.30;;;6.00;;
74401;SDS011;62837;51.082;13.744;2023-05-07T04:58:49;9.60;;;6.30;;
74401;SDS011;62837;51.082;13.744;2023-05-07T05:01:21;7.80;;;5.30;;
74401;SDS011;62837;51.082;13.744;2023-05-07T05:03:51;9.50;;;5.40;;
74401;SDS011;62837;51.082;13.744;2023-05-07T05:06:22;10.90;;;6.20;;
74401;SDS011;62837;51.082;13.744;2023-05-07T05:08:53;12.30;;;6.20;;
74401;SDS011;62837;51.082;13.744;2023-05-07T05:11:25;8.50;;;5.40;;
74401;SDS011;62837;51.082;13.744;2023-05-07T05:13:55;9.30;;;5.50;;
74401;SDS011;62837;51.082;13.744;2023-05-07T05:16:28;6.60;;;4.00;;
74401;SDS011;62837;51.082;13.744;2023-05-07T05:18:59;13.70;;;7.40;;
74401;SDS011;62837;51.082;13.744;2023-05-07T05:21:31;5.40;;;3.60;;
74401;SDS011;62837;51.082;13.744;2023-05-07T05:24:06;7.20;;;4.70;;
74401;SDS011;62837;51.082;13.744;2023-05-07T05:26:37;7.20;;;4.50;;
74401;SDS011;62837;51.082;13.744;2023-05-07T05:29:08;7.50;;;5.10;;
74401;SDS011;62837;51.082;13.744;2023-05-07T05:34:10;7.70;;;4.70;;
74401;SDS011;62837;51.082;13.744;2023-05-07T05:36:42;7.30;;;4.80;;
74401;SDS011;62837;51.082;13.744;2023-05-07T05:39:13;8.70;;;5.40;;
74401;SDS011;62837;51.082;13.744;2023-05-07T05:41:45;7.80;;;4.90;;
74401;SDS011;62837;51.082;13.744;2023-05-07T05:44:16;11.20;;;5.90;;
74401;SDS011;62837;51.082;13.744;2023-05-07T05:46:47;9.90;;;5.50;;
74401;SDS011;62837;51.082;13.744;2023-05-07T05:49:18;9.30;;;4.90;;
74401;SDS011;62837;51.082;13.744;2023-05-07T05:51:50;10.80;;;6.40;;
74401;SDS011;62837;51.082;13.744;2023-05-07T05:54:21;6.10;;;3.60;;
74401;SDS011;62837;51.082;13.744;2023-05-07T05:56:52;6.50;;;3.80;;
74401;SDS011;62837;51.082;13.744;2023-05-07T05:59:24;9.60;;;5.40;;
74401;SDS011;62837;51.082;13.744;2023-05-07T06:01:55;7.40;;;4.30;;
74401;SDS011;62837;51.082;13.744;2023-05-07T06:04:25;7.10;;;3.50;;
74401;SDS011;62837;51.082;13.744;2023-05-07T06:06:57;7.50;;;4.40;;
74401;SDS011;62837;51.082;13.744;2023-05-07T06:09:28;6.20;;;3.60;;
74401;SDS011;62837;51.082;13.744;2023-05-07T06:11:59;7.20;;;4.10;;
74401;SDS011;62837;51.082;13.744;2023-05-07T06:14:30;7.50;;;4.20;;
74401;SDS011;62837;51.082;13.744;2023-05-07T06:17:01;9.70;;;5.10;;
74401;SDS011;62837;51.082;13.744;2023-05-07T06:19:32;8.00;;;4.50;;
74401;SDS011;62837;51.082;13.744;2023-05-07T06:22:03;8.00;;;4.30;;
74401;SDS011;62837;51.082;13.744;2023-05-07T06:24:34;6.00;;;3.70;;
74401;SDS011;62837;51.082;13.744;2023-05-07T06:27:05;7.60;;;4.30;;
74401;SDS011;62837;51.082;13.744;2023-05-07T06:29:37;9.80;;;4.60;;
74401;SDS011;62837;51.082;13.744;2023-05-07T06:32:13;6.30;;;3.70;;
74401;SDS011;62837;51.082;13.744;2023-05-07T06:34:45;7.40;;;4.20;;
74401;SDS011;62837;51.082;13.744;2023-05-07T06:37:16;7.30;;;4.40;;
74401;SDS011;62837;51.082;13.744;2023-05-07T06:39:53;7.40;;;4.30;;
74401;SDS011;62837;51.082;13.744;2023-05-07T06:42:27;6.00;;;3.20;;
74401;SDS011;62837;51.082;13.744;2023-05-07T06:45:00;5.60;;;3.90;;
74401;SDS011;62837;51.082;13.744;2023-05-07T06:47:31;7.80;;;4.00;;
74401;SDS011;62837;51.082;13.744;2023-05-07T06:50:02;5.80;;;2.90;;
74401;SDS011;62837;51.082;13.744;2023-05-07T06:52:35;6.60;;;4.00;;
74401;SDS011;62837;51.082;13.744;2023-05-07T06:55:07;5.40;;;3.20;;
74401;SDS011;62837;51.082;13.744;2023-05-07T06:57:38;7.00;;;4.40;;
74401;SDS011;62837;51.082;13.744;2023-05-07T07:00:10;7.50;;;3.30;;
74401;SDS011;62837;51.082;13.744;2023-05-07T07:02:53;6.80;;;4.10;;
74401;SDS011;62837;51.082;13.744;2023-05-07T07:05:26;8.70;;;5.60;;
74401;SDS011;62837;51.082;13.744;2023-05-07T07:07:58;6.40;;;2.90;;
74401;SDS011;62837;51.082;13.744;2023-05-07T07:10:29;4.30;;;2.40;;
74401;SDS011;62837;51.082;13.744;2023-05-07T07:13:00;7.50;;;4.70;;
74401;SDS011;62837;51.082;13.744;2023-05-07T07:15:31;9.60;;;5.70;;
74401;SDS011;62837;51.082;13.744;2023-05-07T07:18:02;7.20;;;4.10;;
74401;SDS011;62837;51.082;13.744;2023-05-07T07:20:33;7.00;;;3.20;;
74401;SDS011;62837;51.082;13.744;2023-05-07T07:23:04;3.80;;;2.30;;
74401;SDS011;62837;51.082;13.744;2023-05-07T07:25:35;4.40;;;2.30;;
74401;SDS011;62837;51.082;13.744;2023-05-07T07:28:06;4.30;;;2.40;;
74401;SDS011;62837;51.082;13.744;2023-05-07T07:30:39;3.80;;;2.20;;
74401;SDS011;62837;51.082;13.744;2023-05-07T07:33:10;4.10;;;2.50;;
74401;SDS011;62837;51.082;13.744;2023-05-07T07:35:42;3.40;;;2.90;;
74401;SDS011;62837;51.082;13.744;2023-05-07T07:38:12;3.20;;;2.00;;
74401;SDS011;62837;51.082;13.744;2023-05-07T07:40:43;2.90;;;2.30;;
74401;SDS011;62837;51.082;13.744;2023-05-07T07:45:45;3.30;;;2.40;;
74401;SDS011;62837;51.082;13.744;2023-05-07T07:48:16;3.20;;;2.50;;
74401;SDS011;62837;51.082;13.744;2023-05-07T07:50:49;2.50;;;2.00;;
74401;SDS011;62837;51.082;13.744;2023-05-07T07:53:20;3.50;;;2.20;;
74401;SDS011;62837;51.082;13.744;2023-05-07T07:55:51;3.50;;;2.30;;
74401;SDS011;62837;51.082;13.744;2023-05-07T07:58:28;3.90;;;2.30;;
74401;SDS011;62837;51.082;13.744;2023-05-07T08:00:59;2.50;;;1.90;;
74401;SDS011;62837;51.082;13.744;2023-05-07T08:03:31;3.40;;;2.20;;
74401;SDS011;62837;51.082;13.744;2023-05-07T08:06:03;4.40;;;2.10;;
74401;SDS011;62837;51.082;13.744;2023-05-07T08:08:34;3.60;;;2.50;;
74401;SDS011;62837;51.082;13.744;2023-05-07T08:11:05;4.60;;;2.20;;
74401;SDS011;62837;51.082;13.744;2023-05-07T08:13:37;2.90;;;1.80;;
74401;SDS011;62837;51.082;13.744;2023-05-07T08:16:08;2.80;;;2.40;;
74401;SDS011;62837;51.082;13.744;2023-05-07T08:18:40;2.40;;;1.40;;
74401;SDS011;62837;51.082;13.744;2023-05-07T08:21:11;2.40;;;2.00;;
74401;SDS011;62837;51.082;13.744;2023-05-07T08:23:42;3.10;;;1.70;;
74401;SDS011;62837;51.082;13.744;2023-05-07T08:26:13;1.30;;;0.80;;
74401;SDS011;62837;51.082;13.744;2023-05-07T08:28:44;3.40;;;1.70;;
74401;SDS011;62837;51.082;13.744;2023-05-07T08:31:15;2.70;;;1.70;;
74401;SDS011;62837;51.082;13.744;2023-05-07T08:33:46;2.10;;;1.50;;
74401;SDS011;62837;51.082;13.744;2023-05-07T08:36:17;4.70;;;2.30;;
74401;SDS011;62837;51.082;13.744;2023-05-07T08:38:48;3.90;;;1.90;;
74401;SDS011;62837;51.082;13.744;2023-05-07T08:41:19;4.70;;;3.30;;
74401;SDS011;62837;51.082;13.744;2023-05-07T08:43:50;2.70;;;1.80;;
74401;SDS011;62837;51.082;13.744;2023-05-07T08:46:25;2.90;;;1.90;;
74401;SDS011;62837;51.082;13.744;2023-05-07T08:49:00;3.60;;;2.70;;
74401;SDS011;62837;51.082;13.744;2023-05-07T08:51:31;2.90;;;1.90;;
74401;SDS011;62837;51.082;13.744;2023-05-07T08:54:03;5.10;;;2.10;;
74401;SDS011;62837;51.082;13.744;2023-05-07T08:56:35;2.70;;;1.90;;
74401;SDS011;62837;51.082;13.744;2023-05-07T08:59:07;3.80;;;2.60;;
74401;SDS011;62837;51.082;13.744;2023-05-07T09:01:39;5.30;;;3.00;;
74401;SDS011;62837;51.082;13.744;2023-05-07T09:04:11;3.70;;;2.30;;
74401;SDS011;62837;51.082;13.744;2023-05-07T09:06:43;5.10;;;3.10;;
74401;SDS011;62837;51.082;13.744;2023-05-07T09:09:16;3.70;;;1.70;;
74401;SDS011;62837;51.082;13.744;2023-05-07T09:11:48;4.40;;;3.10;;
74401;SDS011;62837;51.082;13.744;2023-05-07T09:14:28;3.30;;;1.80;;
74401;SDS011;62837;51.082;13.744;2023-05-07T09:16:59;4.10;;;2.70;;
74401;SDS011;62837;51.082;13.744;2023-05-07T09:19:30;3.90;;;2.90;;
74401;SDS011;62837;51.082;13.744;2023-05-07T09:24:41;3.60;;;2.80;;
74401;SDS011;62837;51.082;13.744;2023-05-07T09:27:19;3.80;;;2.70;;
74401;SDS011;62837;51.082;13.744;2023-05-07T09:29:50;3.60;;;2.60;;
74401;SDS011;62837;51.082;13.744;2023-05-07T09:32:22;3.60;;;2.40;;
74401;SDS011;62837;51.082;13.744;2023-05-07T09:34:55;4.10;;;2.50;;
74401;SDS011;62837;51.082;13.744;2023-05-07T09:37:28;2.40;;;1.80;;
74401;SDS011;62837;51.082;13.744;2023-05-07T09:42:31;4.30;;;2.90;;
74401;SDS011;62837;51.082;13.744;2023-05-07T09:45:03;5.40;;;3.50;;
74401;SDS011;62837;51.082;13.744;2023-05-07T09:47:37;4.40;;;2.60;;
74401;SDS011;62837;51.082;13.744;2023-05-07T09:50:13;5.10;;;4.10;;
74401;SDS011;62837;51.082;13.744;2023-05-07T09:52:47;3.60;;;2.50;;
74401;SDS011;62837;51.082;13.744;2023-05-07T09:55:19;5.50;;;2.60;;
74401;SDS011;62837;51.082;13.744;2023-05-07T09:57:51;4.80;;;3.40;;
74401;SDS011;62837;51.082;13.744;2023-05-07T10:00:24;4.60;;;2.20;;
74401;SDS011;62837;51.082;13.744;2023-05-07T10:03:00;4.30;;;3.30;;
74401;SDS011;62837;51.082;13.744;2023-05-07T10:05:45;2.70;;;2.10;;
74401;SDS011;62837;51.082;13.744;2023-05-07T10:08:18;4.00;;;3.10;;
74401;SDS011;62837;51.082;13.744;2023-05-07T10:10:52;4.70;;;3.70;;
74401;SDS011;62837;51.082;13.744;2023-05-07T10:13:24;5.80;;;3.80;;
74401;SDS011;62837;51.082;13.744;2023-05-07T10:15:57;4.00;;;2.90;;
74401;SDS011;62837;51.082;13.744;2023-05-07T10:18:32;6.50;;;4.00;;
74401;SDS011;62837;51.082;13.744;2023-05-07T10:21:08;5.20;;;3.10;;
74401;SDS011;62837;51.082;13.744;2023-05-07T10:23:47;6.10;;;2.90;;
74401;SDS011;62837;51.082;13.744;2023-05-07T10:26:20;5.50;;;3.90;;
74401;SDS011;62837;51.082;13.744;2023-05-07T10:31:31;7.20;;;4.70;;
74401;SDS011;62837;51.082;13.744;2023-05-07T10:34:16;5.30;;;3.30;;
74401;SDS011;62837;51.082;13.744;2023-05-07T10:36:50;3.70;;;3.00;;
74401;SDS011;62837;51.082;13.744;2023-05-07T10:39:24;6.50;;;3.90;;
74401;SDS011;62837;51.082;13.744;2023-05-07T10:41:55;3.90;;;3.10;;
74401;SDS011;62837;51.082;13.744;2023-05-07T10:44:36;3.90;;;3.00;;
74401;SDS011;62837;51.082;13.744;2023-05-07T10:47:10;3.90;;;3.00;;
74401;SDS011;62837;51.082;13.744;2023-05-07T11:05:47;3.50;;;2.30;;
74401;SDS011;62837;51.082;13.744;2023-05-07T11:09:04;4.80;;;2.90;;
74401;SDS011;62837;51.082;13.744;2023-05-07T11:11:48;4.30;;;3.10;;
74401;SDS011;62837;51.082;13.744;2023-05-07T11:14:44;3.20;;;2.60;;
74401;SDS011;62837;51.082;13.744;2023-05-07T11:17:22;4.40;;;2.70;;
74401;SDS011;62837;51.082;13.744;2023-05-07T11:19:59;3.10;;;2.30;;
74401;SDS011;62837;51.082;13.744;2023-05-07T11:22:39;3.20;;;2.60;;
74401;SDS011;62837;51.082;13.744;2023-05-07T11:25:30;3.70;;;2.60;;
74401;SDS011;62837;51.082;13.744;2023-05-07T11:28:08;3.20;;;2.20;;
74401;SDS011;62837;51.082;13.744;2023-05-07T11:30:45;2.20;;;1.70;;
74401;SDS011;62837;51.082;13.744;2023-05-07T11:35:48;2.10;;;1.70;;
74401;SDS011;62837;51.082;13.744;2023-05-07T11:38:23;3.50;;;2.40;;
74401;SDS011;62837;51.082;13.744;2023-05-07T11:40:55;3.30;;;2.40;;
74401;SDS011;62837;51.082;13.744;2023-05-07T11:43:28;3.90;;;2.90;;
74401;SDS011;62837;51.082;13.744;2023-05-07T11:46:05;3.50;;;2.70;;
74401;SDS011;62837;51.082;13.744;2023-05-07T11:48:37;3.30;;;2.40;;
74401;SDS011;62837;51.082;13.744;2023-05-07T11:51:09;4.50;;;3.00;;
74401;SDS011;62837;51.082;13.744;2023-05-07T11:53:41;3.30;;;2.60;;
74401;SDS011;62837;51.082;13.744;2023-05-07T11:56:12;4.50;;;3.00;;
74401;SDS011;62837;51.082;13.744;2023-05-07T12:01:14;3.30;;;2.70;;
74401;SDS011;62837;51.082;13.744;2023-05-07T12:03:48;3.10;;;2.30;;
74401;SDS011;62837;51.082;13.744;2023-05-07T12:06:19;3.80;;;2.50;;
74401;SDS011;62837;51.082;13.744;2023-05-07T12:08:50;3.80;;;2.50;;
74401;SDS011;62837;51.082;13.744;2023-05-07T12:11:25;4.30;;;2.80;;
74401;SDS011;62837;51.082;13.744;2023-05-07T12:13:56;3.10;;;2.30;;
74401;SDS011;62837;51.082;13.744;2023-05-07T12:16:27;4.80;;;3.30;;
74401;SDS011;62837;51.082;13.744;2023-05-07T12:18:59;5.40;;;3.30;;
74401;SDS011;62837;51.082;13.744;2023-05-07T12:21:30;4.90;;;3.20;;
74401;SDS011;62837;51.082;13.744;2023-05-07T12:24:03;3.50;;;3.00;;
74401;SDS011;62837;51.082;13.744;2023-05-07T12:26:34;4.00;;;3.00;;
74401;SDS011;62837;51.082;13.744;2023-05-07T12:29:08;4.60;;;3.20;;
74401;SDS011;62837;51.082;13.744;2023-05-07T12:31:41;3.70;;;2.80;;
74401;SDS011;62837;51.082;13.744;2023-05-07T12:34:12;3.40;;;2.80;;
74401;SDS011;62837;51.082;13.744;2023-05-07T12:36:44;4.40;;;3.10;;
74401;SDS011;62837;51.082;13.744;2023-05-07T12:39:16;3.70;;;2.60;;
74401;SDS011;62837;51.082;13.744;2023-05-07T12:41:54;2.60;;;2.00;;
74401;SDS011;62837;51.082;13.744;2023-05-07T12:44:28;3.20;;;2.20;;
74401;SDS011;62837;51.082;13.744;2023-05-07T12:47:02;3.10;;;2.70;;
74401;SDS011;62837;51.082;13.744;2023-05-07T12:49:33;3.50;;;2.80;;
74401;SDS011;62837;51.082;13.744;2023-05-07T12:52:06;3.20;;;2.60;;
74401;SDS011;62837;51.082;13.744;2023-05-07T12:54:38;3.60;;;2.60;;
74401;SDS011;62837;51.082;13.744;2023-05-07T12:57:09;3.40;;;2.60;;
74401;SDS011;62837;51.082;13.744;2023-05-07T12:59:40;4.50;;;3.20;;
74401;SDS011;62837;51.082;13.744;2023-05-07T13:02:11;2.70;;;2.00;;
74401;SDS011;62837;51.082;13.744;2023-05-07T13:04:42;2.60;;;2.00;;
74401;SDS011;62837;51.082;13.744;2023-05-07T13:07:12;4.00;;;2.70;;
74401;SDS011;62837;51.082;13.744;2023-05-07T13:09:43;3.50;;;2.90;;
74401;SDS011;62837;51.082;13.744;2023-05-07T13:14:44;2.80;;;2.20;;
74401;SDS011;62837;51.082;13.744;2023-05-07T13:17:15;3.80;;;2.30;;
74401;SDS011;62837;51.082;13.744;2023-05-07T13:19:46;3.80;;;1.90;;
74401;SDS011;62837;51.082;13.744;2023-05-07T13:22:17;4.70;;;2.60;;
74401;SDS011;62837;51.082;13.744;2023-05-07T13:24:48;2.80;;;2.00;;
74401;SDS011;62837;51.082;13.744;2023-05-07T13:27:19;3.80;;;1.90;;
74401;SDS011;62837;51.082;13.744;2023-05-07T13:29:50;3.00;;;2.20;;
74401;SDS011;62837;51.082;13.744;2023-05-07T13:32:21;2.80;;;1.50;;
74401;SDS011;62837;51.082;13.744;2023-05-07T13:34:52;2.40;;;2.00;;
74401;SDS011;62837;51.082;13.744;2023-05-07T13:37:22;2.90;;;1.90;;
74401;SDS011;62837;51.082;13.744;2023-05-07T13:39:53;2.30;;;1.60;;
74401;SDS011;62837;51.082;13.744;2023-05-07T13:42:24;3.80;;;2.00;;
74401;SDS011;62837;51.082;13.744;2023-05-07T13:44:55;4.30;;;1.90;;
74401;SDS011;62837;51.082;13.744;2023-05-07T13:47:26;4.50;;;2.10;;
74401;SDS011;62837;51.082;13.744;2023-05-07T13:49:57;2.70;;;2.10;;
74401;SDS011;62837;51.082;13.744;2023-05-07T13:52:28;2.40;;;1.70;;
74401;SDS011;62837;51.082;13.744;2023-05-07T13:54:58;2.10;;;1.70;;
74401;SDS011;62837;51.082;13.744;2023-05-07T13:57:29;2.60;;;1.50;;
74401;SDS011;62837;51.082;13.744;2023-05-07T14:00:00;2.20;;;1.50;;
74401;SDS011;62837;51.082;13.744;2023-05-07T14:02:52;5.20;;;2.20;;
74401;SDS011;62837;51.082;13.744;2023-05-07T14:05:24;3.90;;;1.60;;
74401;SDS011;62837;51.082;13.744;2023-05-07T14:07:56;4.00;;;2.40;;
74401;SDS011;62837;51.082;13.744;2023-05-07T14:10:27;2.80;;;1.70;;
74401;SDS011;62837;51.082;13.744;2023-05-07T14:12:59;2.30;;;1.20;;
74401;SDS011;62837;51.082;13.744;2023-05-07T14:15:30;2.30;;;1.70;;
74401;SDS011;62837;51.082;13.744;2023-05-07T14:18:01;2.20;;;1.80;;
74401;SDS011;62837;51.082;13.744;2023-05-07T14:20:32;2.30;;;1.20;;
74401;SDS011;62837;51.082;13.744;2023-05-07T14:23:05;3.70;;;1.90;;
74401;SDS011;62837;51.082;13.744;2023-05-07T14:25:36;2.30;;;1.50;;
74401;SDS011;62837;51.082;13.744;2023-05-07T14:28:07;2.10;;;1.70;;
74401;SDS011;62837;51.082;13.744;2023-05-07T14:30:37;2.60;;;1.80;;
74401;SDS011;62837;51.082;13.744;2023-05-07T14:33:08;3.80;;;2.10;;
74401;SDS011;62837;51.082;13.744;2023-05-07T14:35:39;2.50;;;1.10;;
74401;SDS011;62837;51.082;13.744;2023-05-07T14:38:15;2.90;;;1.50;;
74401;SDS011;62837;51.082;13.744;2023-05-07T14:40:46;2.60;;;1.60;;
74401;SDS011;62837;51.082;13.744;2023-05-07T14:43:17;2.80;;;1.30;;
74401;SDS011;62837;51.082;13.744;2023-05-07T14:45:48;2.30;;;1.70;;
74401;SDS011;62837;51.082;13.744;2023-05-07T14:48:19;3.20;;;1.60;;
74401;SDS011;62837;51.082;13.744;2023-05-07T14:50:50;2.40;;;1.20;;
74401;SDS011;62837;51.082;13.744;2023-05-07T14:53:20;3.50;;;1.90;;
74401;SDS011;62837;51.082;13.744;2023-05-07T14:55:52;3.20;;;1.30;;
74401;SDS011;62837;51.082;13.744;2023-05-07T14:58:23;3.20;;;2.40;;
74401;SDS011;62837;51.082;13.744;2023-05-07T15:00:53;2.50;;;1.90;;
74401;SDS011;62837;51.082;13.744;2023-05-07T15:03:24;1.80;;;1.00;;
74401;SDS011;62837;51.082;13.744;2023-05-07T15:05:55;2.70;;;1.80;;
74401;SDS011;62837;51.082;13.744;2023-05-07T15:08:26;3.90;;;2.00;;
74401;SDS011;62837;51.082;13.744;2023-05-07T15:10:56;3.20;;;2.10;;
74401;SDS011;62837;51.082;13.744;2023-05-07T15:13:27;2.40;;;1.80;;
74401;SDS011;62837;51.082;13.744;2023-05-07T15:15:58;3.10;;;2.30;;
74401;SDS011;62837;51.082;13.744;2023-05-07T15:18:29;2.20;;;1.60;;
74401;SDS011;62837;51.082;13.744;2023-05-07T15:21:00;4.00;;;2.80;;
74401;SDS011;62837;51.082;13.744;2023-05-07T15:23:32;2.40;;;1.80;;
74401;SDS011;62837;51.082;13.744;2023-05-07T15:26:03;3.00;;;2.20;;
74401;SDS011;62837;51.082;13.744;2023-05-07T15:28:35;3.80;;;2.10;;
74401;SDS011;62837;51.082;13.744;2023-05-07T15:31:07;3.00;;;2.30;;
74401;SDS011;62837;51.082;13.744;2023-05-07T15:33:38;3.70;;;2.20;;
74401;SDS011;62837;51.082;13.744;2023-05-07T15:36:09;2.90;;;2.30;;
74401;SDS011;62837;51.082;13.744;2023-05-07T15:38:40;3.40;;;2.30;;
74401;SDS011;62837;51.082;13.744;2023-05-07T15:41:11;4.20;;;2.90;;
74401;SDS011;62837;51.082;13.744;2023-05-07T15:43:44;2.70;;;2.10;;